Time;durP1;ratioP1;P1;durP2;ratioP2;P2;SDS_P1;SDS_P2;PMS_P1;PMS_P2;Temp;Humidity;BMP_temperature;BMP_pressure;BME280_temperature;BME280_humidity;BME280_pressure;Samples;Min_cycle;Max_cycle;Signal;HPM_P1;HPM_P2
2022/10/17 00:01:39;;;;;;;9.00;4.38;;;;;;;;;;5056678;28;20041;-82
2022/10/17 00:04:05;;;;;;;8.18;5.22;;;;;;;;;;5065057;28;20028;-81
2022/10/17 00:06:31;;;;;;;9.30;5.57;;;;;;;;;;5068750;28;20028;-80
2022/10/17 00:08:57;;;;;;;7.10;5.00;;;;;;;;;;5065761;28;20028;-80
2022/10/17 00:11:24;;;;;;;9.80;4.90;;;;;;;;;;5084656;28;20040;-80
2022/10/17 00:13:53;;;;;;;7.50;5.15;;;;;;;;;;5071544;28;20024;-82
2022/10/17 00:16:27;;;;;;;8.45;4.97;;;;;;;;;;5052781;28;20029;-82
2022/10/17 00:18:54;;;;;;;8.15;4.85;;;;;;;;;;5052048;28;20058;-81
2022/10/17 00:21:20;;;;;;;6.13;4.40;;;;;;;;;;5068285;28;20064;-81
2022/10/17 00:23:46;;;;;;;12.70;5.28;;;;;;;;;;5056280;28;20021;-82
2022/10/17 00:26:13;;;;;;;7.97;5.28;;;;;;;;;;5063748;28;20033;-81
2022/10/17 00:28:39;;;;;;;5.88;4.45;;;;;;;;;;5070595;28;20028;-81
2022/10/17 00:31:06;;;;;;;7.15;4.68;;;;;;;;;;5072365;28;20115;-81
2022/10/17 00:33:33;;;;;;;7.60;4.35;;;;;;;;;;5068041;28;20041;-81
2022/10/17 00:36:18;;;;;;;8.65;5.07;;;;;;;;;;5072383;28;20074;-82
2022/10/17 00:38:45;;;;;;;7.07;5.22;;;;;;;;;;5071964;28;20111;-82
2022/10/17 00:41:14;;;;;;;8.63;5.50;;;;;;;;;;5050779;28;20032;-81
2022/10/17 00:44:01;;;;;;;7.63;4.95;;;;;;;;;;5065529;28;20348;-82
2022/10/17 00:46:29;;;;;;;8.35;4.57;;;;;;;;;;5054069;28;20041;-82
2022/10/17 00:48:55;;;;;;;7.55;4.70;;;;;;;;;;5066010;28;20182;-84
2022/10/17 00:51:28;;;;;;;9.30;4.90;;;;;;;;;;5056340;28;20094;-85
2022/10/17 00:53:55;;;;;;;6.28;4.10;;;;;;;;;;5066295;28;20020;-86
2022/10/17 00:56:21;;;;;;;6.95;4.95;;;;;;;;;;5062469;28;20017;-84
2022/10/17 00:58:47;;;;;;;10.10;4.65;;;;;;;;;;5054084;28;20052;-83
2022/10/17 01:01:14;;;;;;;8.50;4.93;;;;;;;;;;5052694;28;20461;-84
2022/10/17 01:03:40;;;;;;;8.18;5.28;;;;;;;;;;5070336;28;20052;-85
2022/10/17 01:06:06;;;;;;;7.95;4.82;;;;;;;;;;5051728;28;20040;-83
2022/10/17 01:08:32;;;;;;;7.40;5.07;;;;;;;;;;5062515;28;20025;-83
2022/10/17 01:10:58;;;;;;;7.40;5.47;;;;;;;;;;5063421;28;20043;-83
2022/10/17 01:13:33;;;;;;;6.57;4.45;;;;;;;;;;5079447;28;20032;-84
2022/10/17 01:16:09;;;;;;;8.13;5.05;;;;;;;;;;5055229;28;20059;-84
2022/10/17 01:18:41;;;;;;;10.63;5.30;;;;;;;;;;5080840;28;20029;-84
2022/10/17 01:21:08;;;;;;;9.63;5.38;;;;;;;;;;5073824;28;20481;-84
2022/10/17 01:23:54;;;;;;;7.60;4.70;;;;;;;;;;5081611;28;20066;-85
2022/10/17 01:26:23;;;;;;;6.65;4.90;;;;;;;;;;5075630;28;20024;-85
2022/10/17 01:28:55;;;;;;;17.27;5.20;;;;;;;;;;5054599;28;20040;-83
2022/10/17 01:31:47;;;;;;;8.93;4.85;;;;;;;;;;5070923;28;20110;-84
2022/10/17 01:34:34;;;;;;;6.45;5.40;;;;;;;;;;5066388;28;20048;-84
2022/10/17 01:37:19;;;;;;;9.73;5.15;;;;;;;;;;5075409;28;20032;-83
2022/10/17 01:39:48;;;;;;;8.07;4.85;;;;;;;;;;5075351;28;20032;-83
2022/10/17 01:42:23;;;;;;;8.05;4.97;;;;;;;;;;5074044;28;20059;-84
2022/10/17 01:44:55;;;;;;;7.85;5.15;;;;;;;;;;5069259;28;20013;-84
2022/10/17 01:47:24;;;;;;;7.65;5.80;;;;;;;;;;5037109;28;20079;-82
2022/10/17 01:49:52;;;;;;;10.10;5.88;;;;;;;;;;5071098;28;20032;-82
2022/10/17 01:52:29;;;;;;;5.18;4.10;;;;;;;;;;5075119;28;20028;-83
2022/10/17 01:54:55;;;;;;;;;;;;;;;;;;5061073;28;20029;-83
2022/10/17 01:57:38;;;;;;;7.55;4.50;;;;;;;;;;5065897;28;19904;-80
2022/10/17 02:00:08;;;;;;;8.52;5.55;;;;;;;;;;5054925;28;20047;-82
2022/10/17 02:02:34;;;;;;;9.70;5.38;;;;;;;;;;5064248;28;20023;-82
2022/10/17 02:05:01;;;;;;;7.30;5.13;;;;;;;;;;5060229;28;20071;-82
2022/10/17 02:07:27;;;;;;;7.50;4.70;;;;;;;;;;5065327;28;20488;-83
2022/10/17 02:09:53;;;;;;;7.82;4.85;;;;;;;;;;5095216;28;20036;-83
2022/10/17 02:12:41;;;;;;;10.85;6.10;;;;;;;;;;5077082;28;20020;-84
2022/10/17 02:15:10;;;;;;;12.40;5.53;;;;;;;;;;5053765;28;20024;-84
2022/10/17 02:17:39;;;;;;;6.53;4.68;;;;;;;;;;5056811;28;20496;-84
2022/10/17 02:20:13;;;;;;;9.63;5.72;;;;;;;;;;5074910;28;20036;-85
2022/10/17 02:22:48;;;;;;;7.72;5.05;;;;;;;;;;5069417;28;20018;-84
2022/10/17 02:25:41;;;;;;;9.20;5.88;;;;;;;;;;5055539;28;20033;-85
2022/10/17 02:28:07;;;;;;;7.88;5.20;;;;;;;;;;5025264;28;20478;-84
2022/10/17 02:30:33;;;;;;;11.73;5.15;;;;;;;;;;5071833;28;20034;-85
2022/10/17 02:33:01;;;;;;;7.55;5.15;;;;;;;;;;5077563;28;20017;-84
2022/10/17 02:35:30;;;;;;;7.65;4.97;;;;;;;;;;5066599;28;20032;-83
2022/10/17 02:37:56;;;;;;;9.32;5.45;;;;;;;;;;5068227;28;20020;-85
2022/10/17 02:40:24;;;;;;;5.97;4.45;;;;;;;;;;5067985;28;20024;-84
2022/10/17 02:42:51;;;;;;;6.93;4.50;;;;;;;;;;5082198;28;20032;-83
2022/10/17 02:45:17;;;;;;;8.38;5.70;;;;;;;;;;5088467;28;20054;-85
2022/10/17 02:47:49;;;;;;;6.00;5.13;;;;;;;;;;5073207;28;20029;-85
2022/10/17 02:50:15;;;;;;;9.98;5.13;;;;;;;;;;5081997;28;20124;-85
2022/10/17 02:53:10;;;;;;;7.45;5.25;;;;;;;;;;5067458;28;20029;-87
2022/10/17 02:55:40;;;;;;;6.95;5.32;;;;;;;;;;5048276;28;20124;-85
2022/10/17 02:58:08;;;;;;;10.15;5.30;;;;;;;;;;5056676;28;20092;-85
2022/10/17 03:00:34;;;;;;;;;;;;;;;;;;5066325;28;20050;-85
2022/10/17 03:03:00;;;;;;;8.27;5.40;;;;;;;;;;5065129;28;19955;-85
2022/10/17 03:05:28;;;;;;;6.13;5.53;;;;;;;;;;5070708;28;20017;-85
2022/10/17 03:07:54;;;;;;;9.55;5.70;;;;;;;;;;5065455;28;20029;-84
2022/10/17 03:10:21;;;;;;;11.50;4.53;;;;;;;;;;5054000;28;20052;-83
2022/10/17 03:12:48;;;;;;;8.50;5.05;;;;;;;;;;5052799;28;20071;-85
2022/10/17 03:15:14;;;;;;;9.80;4.82;;;;;;;;;;5068053;28;20092;-84
2022/10/17 03:17:40;;;;;;;6.45;5.70;;;;;;;;;;5052368;28;20017;-84
2022/10/17 03:20:06;;;;;;;7.22;5.15;;;;;;;;;;5053235;28;20025;-85
2022/10/17 03:22:33;;;;;;;11.23;5.47;;;;;;;;;;5050975;28;20021;-85
2022/10/17 03:24:59;;;;;;;7.53;5.13;;;;;;;;;;5063738;28;20028;-85
2022/10/17 03:27:25;;;;;;;8.82;5.10;;;;;;;;;;5054483;28;20016;-84
2022/10/17 03:29:54;;;;;;;9.02;4.78;;;;;;;;;;5072900;28;20036;-84
2022/10/17 03:32:20;;;;;;;7.47;4.93;;;;;;;;;;5052882;28;20029;-84
2022/10/17 03:34:46;;;;;;;6.53;4.95;;;;;;;;;;5072678;28;20036;-84
2022/10/17 03:37:12;;;;;;;6.60;4.82;;;;;;;;;;5046366;28;20082;-85
2022/10/17 03:39:38;;;;;;;8.13;4.90;;;;;;;;;;5072213;28;20017;-84
2022/10/17 03:42:04;;;;;;;12.32;4.88;;;;;;;;;;5072525;28;20363;-85
2022/10/17 03:44:30;;;;;;;11.07;5.45;;;;;;;;;;5072518;28;20114;-84
2022/10/17 03:46:57;;;;;;;6.30;4.60;;;;;;;;;;5063219;28;20025;-83
2022/10/17 03:49:23;;;;;;;10.32;5.10;;;;;;;;;;5066697;28;20469;-82
2022/10/17 03:51:49;;;;;;;7.78;5.38;;;;;;;;;;5063606;28;20067;-82
2022/10/17 03:54:15;;;;;;;8.57;5.65;;;;;;;;;;5073776;28;20537;-82
2022/10/17 03:56:42;;;;;;;7.88;5.07;;;;;;;;;;5052800;28;20021;-82
2022/10/17 03:59:12;;;;;;;9.63;5.33;;;;;;;;;;5067597;28;20058;-81
2022/10/17 04:01:38;;;;;;;7.82;5.10;;;;;;;;;;5076893;28;20296;-83
2022/10/17 04:04:04;;;;;;;8.32;4.60;;;;;;;;;;5058466;28;20032;-83
2022/10/17 04:06:30;;;;;;;7.10;5.22;;;;;;;;;;5066099;28;20059;-82
2022/10/17 04:09:00;;;;;;;8.38;5.57;;;;;;;;;;5046978;28;20028;-82
2022/10/17 04:11:26;;;;;;;9.32;6.28;;;;;;;;;;5044000;28;20036;-84
2022/10/17 04:13:59;;;;;;;9.07;5.47;;;;;;;;;;5070962;28;20032;-85
2022/10/17 04:16:28;;;;;;;8.25;5.60;;;;;;;;;;5044507;28;20378;-84
2022/10/17 04:18:55;;;;;;;16.55;5.30;;;;;;;;;;5052999;28;20052;-85
2022/10/17 04:21:21;;;;;;;;;;;;;;;;;;5069741;28;20406;-83
2022/10/17 04:23:47;;;;;;;8.30;4.95;;;;;;;;;;5044493;28;20611;-85
2022/10/17 04:26:14;;;;;;;7.65;5.93;;;;;;;;;;5039608;28;20025;-85
2022/10/17 04:28:40;;;;;;;7.63;4.68;;;;;;;;;;5043617;28;20025;-85
2022/10/17 04:31:07;;;;;;;7.55;5.93;;;;;;;;;;5040079;28;20529;-85
2022/10/17 04:33:33;;;;;;;;;;;;;;;;;;5051256;28;20040;-84
2022/10/17 04:36:01;;;;;;;8.48;5.35;;;;;;;;;;5057047;28;19956;-85
2022/10/17 04:38:27;;;;;;;;;;;;;;;;;;5039698;28;20063;-85
2022/10/17 04:41:10;;;;;;;11.60;5.70;;;;;;;;;;5066498;28;19908;-84
2022/10/17 04:43:39;;;;;;;6.95;4.97;;;;;;;;;;5046285;28;20025;-84
2022/10/17 04:46:09;;;;;;;8.30;5.65;;;;;;;;;;5061139;28;20029;-83
2022/10/17 04:48:35;;;;;;;9.77;5.35;;;;;;;;;;5058270;28;20017;-83
2022/10/17 04:51:03;;;;;;;10.10;5.47;;;;;;;;;;5057712;28;20036;-84
2022/10/17 04:53:34;;;;;;;8.93;5.53;;;;;;;;;;5045127;28;20360;-83
2022/10/17 04:56:00;;;;;;;9.13;4.88;;;;;;;;;;5056543;28;20363;-85
2022/10/17 04:58:29;;;;;;;7.85;5.75;;;;;;;;;;5056673;28;20009;-83
2022/10/17 05:00:55;;;;;;;11.27;5.55;;;;;;;;;;5038115;28;20600;-84
2022/10/17 05:03:21;;;;;;;8.25;6.18;;;;;;;;;;5037769;28;20474;-83
2022/10/17 05:05:47;;;;;;;11.93;5.85;;;;;;;;;;5056263;28;20063;-84
2022/10/17 05:08:13;;;;;;;7.80;5.43;;;;;;;;;;5047370;28;20108;-85
2022/10/17 05:10:41;;;;;;;8.45;5.45;;;;;;;;;;5076371;28;20043;-83
2022/10/17 05:13:07;;;;;;;;;;;;;;;;;;5055995;28;20066;-84
2022/10/17 05:15:33;;;;;;;7.88;4.97;;;;;;;;;;5053187;28;19995;-86
2022/10/17 05:18:00;;;;;;;10.60;5.75;;;;;;;;;;5044442;28;20029;-83
2022/10/17 05:20:26;;;;;;;10.13;5.65;;;;;;;;;;5067282;28;20040;-83
2022/10/17 05:22:53;;;;;;;13.38;6.47;;;;;;;;;;5037397;28;20024;-84
2022/10/17 05:25:19;;;;;;;13.35;6.68;;;;;;;;;;5055363;28;20025;-85
2022/10/17 05:27:45;;;;;;;11.05;6.03;;;;;;;;;;5055544;28;20020;-84
2022/10/17 05:30:11;;;;;;;7.85;5.57;;;;;;;;;;5037587;28;20124;-83
2022/10/17 05:32:38;;;;;;;8.50;5.30;;;;;;;;;;5055734;28;20101;-85
2022/10/17 05:35:04;;;;;;;9.02;6.22;;;;;;;;;;5066489;28;20482;-82
2022/10/17 05:37:31;;;;;;;15.83;6.10;;;;;;;;;;5073784;28;20004;-83
2022/10/17 05:39:57;;;;;;;12.07;6.90;;;;;;;;;;5063178;28;20112;-83
2022/10/17 05:42:24;;;;;;;9.48;6.38;;;;;;;;;;5047368;28;20421;-84
2022/10/17 05:44:50;;;;;;;10.80;7.18;;;;;;;;;;5061622;28;20115;-84
2022/10/17 05:47:16;;;;;;;15.48;6.25;;;;;;;;;;5055281;28;20041;-85
2022/10/17 05:49:42;;;;;;;13.57;6.47;;;;;;;;;;5057006;28;20060;-84
2022/10/17 05:52:08;;;;;;;7.88;5.93;;;;;;;;;;5042188;28;20029;-84
2022/10/17 05:54:34;;;;;;;10.60;5.53;;;;;;;;;;5067710;28;20481;-85
2022/10/17 05:57:00;;;;;;;9.32;6.53;;;;;;;;;;5036855;28;20028;-85
2022/10/17 05:59:27;;;;;;;9.10;6.07;;;;;;;;;;5062558;28;20017;-85
2022/10/17 06:01:53;;;;;;;14.88;5.72;;;;;;;;;;5037966;28;20064;-82
2022/10/17 06:04:19;;;;;;;8.55;5.47;;;;;;;;;;5057707;28;20064;-84
2022/10/17 06:06:46;;;;;;;10.25;5.93;;;;;;;;;;5063879;28;20073;-84
2022/10/17 06:09:12;;;;;;;10.95;6.35;;;;;;;;;;5066383;28;20032;-84
2022/10/17 06:11:38;;;;;;;7.80;5.13;;;;;;;;;;5057689;28;20120;-86
2022/10/17 06:14:04;;;;;;;14.35;7.35;;;;;;;;;;5059478;28;20021;-85
2022/10/17 06:16:30;;;;;;;14.80;6.93;;;;;;;;;;5056209;28;20029;-85
2022/10/17 06:18:57;;;;;;;10.48;5.50;;;;;;;;;;5041024;28;20021;-85
2022/10/17 06:21:24;;;;;;;13.43;6.47;;;;;;;;;;5055963;28;20029;-86
2022/10/17 06:23:51;;;;;;;11.10;6.15;;;;;;;;;;5069633;28;20035;-84
2022/10/17 06:26:17;;;;;;;13.88;6.75;;;;;;;;;;5074749;28;20036;-84
2022/10/17 06:28:43;;;;;;;11.40;5.88;;;;;;;;;;5075051;28;20112;-85
2022/10/17 06:31:11;;;;;;;15.20;6.90;;;;;;;;;;5039503;28;20036;-84
2022/10/17 06:33:37;;;;;;;;;;;;;;;;;;5054792;28;20041;-86
2022/10/17 06:36:04;;;;;;;7.95;5.57;;;;;;;;;;5042867;28;19919;-86
2022/10/17 06:38:30;;;;;;;12.50;6.65;;;;;;;;;;5067578;28;20043;-86
2022/10/17 06:41:07;;;;;;;11.60;6.45;;;;;;;;;;5039365;28;20025;-83
2022/10/17 06:43:33;;;;;;;10.05;5.95;;;;;;;;;;5042857;28;20045;-84
2022/10/17 06:45:59;;;;;;;11.10;5.97;;;;;;;;;;5054253;28;20166;-84
2022/10/17 06:48:25;;;;;;;12.85;5.70;;;;;;;;;;5071267;28;20047;-84
2022/10/17 06:50:51;;;;;;;11.30;5.95;;;;;;;;;;5052671;28;20379;-86
2022/10/17 06:53:17;;;;;;;14.25;6.15;;;;;;;;;;5043153;28;20025;-83
2022/10/17 06:55:44;;;;;;;11.32;5.82;;;;;;;;;;5042326;28;20025;-84
2022/10/17 06:58:10;;;;;;;10.63;6.35;;;;;;;;;;5041186;28;20029;-83
2022/10/17 07:00:36;;;;;;;14.18;7.50;;;;;;;;;;5054617;28;20063;-84
2022/10/17 07:03:02;;;;;;;9.68;5.93;;;;;;;;;;5064127;28;20390;-82
2022/10/17 07:05:28;;;;;;;10.57;5.95;;;;;;;;;;5064191;28;20111;-82
2022/10/17 07:07:54;;;;;;;8.32;5.63;;;;;;;;;;5066056;28;20021;-83
2022/10/17 07:10:20;;;;;;;8.05;5.78;;;;;;;;;;5075920;28;20044;-84
2022/10/17 07:12:46;;;;;;;11.88;6.22;;;;;;;;;;5075170;28;20023;-83
2022/10/17 07:15:13;;;;;;;12.63;6.72;;;;;;;;;;5059680;28;20020;-83
2022/10/17 07:17:39;;;;;;;11.80;6.30;;;;;;;;;;5053771;28;20025;-83
2022/10/17 07:20:05;;;;;;;9.43;5.30;;;;;;;;;;5055840;28;20029;-83
2022/10/17 07:22:31;;;;;;;9.07;5.72;;;;;;;;;;5065701;28;20024;-83
2022/10/17 07:24:57;;;;;;;11.50;6.65;;;;;;;;;;5078966;28;20444;-83
2022/10/17 07:27:23;;;;;;;12.77;5.97;;;;;;;;;;5074700;28;20440;-83
2022/10/17 07:29:49;;;;;;;12.57;7.30;;;;;;;;;;5061865;28;20091;-83
2022/10/17 07:32:16;;;;;;;11.82;6.32;;;;;;;;;;5072454;28;20052;-83
2022/10/17 07:34:42;;;;;;;12.40;6.72;;;;;;;;;;5059048;28;20494;-83
2022/10/17 07:37:08;;;;;;;11.07;7.15;;;;;;;;;;5072973;28;20516;-82
2022/10/17 07:39:35;;;;;;;13.68;7.22;;;;;;;;;;5052120;28;20023;-82
2022/10/17 07:42:01;;;;;;;12.35;6.80;;;;;;;;;;5051028;28;20024;-82
2022/10/17 07:44:27;;;;;;;8.93;6.07;;;;;;;;;;5058624;28;20013;-84
2022/10/17 07:46:53;;;;;;;9.70;6.00;;;;;;;;;;5051272;28;20120;-84
2022/10/17 07:49:20;;;;;;;11.25;5.97;;;;;;;;;;5066690;28;20128;-83
2022/10/17 07:51:47;;;;;;;17.52;6.07;;;;;;;;;;5051908;28;20028;-83
2022/10/17 07:54:14;;;;;;;16.08;7.30;;;;;;;;;;5065932;28;20062;-84
2022/10/17 07:56:40;;;;;;;22.13;7.43;;;;;;;;;;5058605;28;20031;-85
2022/10/17 07:59:06;;;;;;;11.15;6.00;;;;;;;;;;5072559;28;20496;-84
2022/10/17 08:01:32;;;;;;;10.90;7.28;;;;;;;;;;5051122;28;20024;-84
2022/10/17 08:03:58;;;;;;;14.13;6.70;;;;;;;;;;5063916;28;20042;-81
2022/10/17 08:06:24;;;;;;;18.20;7.35;;;;;;;;;;5067281;28;20025;-81
2022/10/17 08:08:50;;;;;;;12.30;6.90;;;;;;;;;;5069388;28;20024;-81
2022/10/17 08:11:17;;;;;;;11.52;7.85;;;;;;;;;;5062389;28;20086;-82
2022/10/17 08:13:43;;;;;;;9.13;6.22;;;;;;;;;;5071926;28;20021;-83
2022/10/17 08:16:12;;;;;;;12.60;7.05;;;;;;;;;;5046287;28;20025;-84
2022/10/17 08:18:39;;;;;;;13.85;7.47;;;;;;;;;;5066396;28;20029;-84
2022/10/17 08:21:07;;;;;;;11.65;6.72;;;;;;;;;;5072115;28;20021;-84
2022/10/17 08:23:33;;;;;;;;;;;;;;;;;;5066383;28;20024;-85
2022/10/17 08:25:59;;;;;;;8.60;6.07;;;;;;;;;;5057677;28;19912;-82
2022/10/17 08:28:26;;;;;;;12.47;8.77;;;;;;;;;;5071933;28;20040;-83
2022/10/17 08:30:52;;;;;;;10.52;7.15;;;;;;;;;;5036541;28;20086;-84
2022/10/17 08:33:18;;;;;;;16.48;7.70;;;;;;;;;;5061436;28;20040;-83
2022/10/17 08:35:44;;;;;;;14.27;8.18;;;;;;;;;;5071898;28;20354;-83
2022/10/17 08:38:10;;;;;;;14.50;8.77;;;;;;;;;;5074375;28;20020;-83
2022/10/17 08:40:41;;;;;;;13.85;8.65;;;;;;;;;;5042076;28;20478;-83
2022/10/17 08:43:13;;;;;;;14.02;8.70;;;;;;;;;;5069148;28;20379;-83
2022/10/17 08:45:44;;;;;;;10.40;7.35;;;;;;;;;;5058806;28;20035;-84
2022/10/17 08:48:13;;;;;;;15.07;8.23;;;;;;;;;;5066156;28;20550;-83
2022/10/17 08:50:39;;;;;;;15.00;8.65;;;;;;;;;;5052396;28;20059;-83
2022/10/17 08:53:24;;;;;;;16.83;7.93;;;;;;;;;;5073375;28;20043;-81
2022/10/17 08:55:51;;;;;;;16.70;10.00;;;;;;;;;;5085343;28;20032;-84
2022/10/17 08:58:22;;;;;;;12.20;8.00;;;;;;;;;;5074495;28;20095;-83
2022/10/17 09:01:12;;;;;;;12.65;8.02;;;;;;;;;;5063436;28;20032;-82
2022/10/17 09:03:47;;;;;;;15.98;8.60;;;;;;;;;;5011964;28;20112;-83
2022/10/17 09:06:28;;;;;;;13.75;8.40;;;;;;;;;;5059856;28;20036;-84
2022/10/17 09:09:15;;;;;;;11.23;8.10;;;;;;;;;;5041979;28;20029;-84
2022/10/17 09:12:00;;;;;;;12.77;8.17;;;;;;;;;;5068688;28;20064;-87
2022/10/17 09:14:44;;;;;;;10.40;8.15;;;;;;;;;;5076150;28;20028;-83
2022/10/17 09:17:26;;;;;;;11.50;7.63;;;;;;;;;;5066647;28;20060;-85
2022/10/17 09:20:01;;;;;;;13.60;9.95;;;;;;;;;;5071710;28;20122;-85
2022/10/17 09:22:30;;;;;;;18.20;10.60;;;;;;;;;;5076480;28;20012;-84
2022/10/17 09:25:02;;;;;;;23.05;11.05;;;;;;;;;;5076418;28;20025;-81
2022/10/17 09:27:31;;;;;;;21.55;13.00;;;;;;;;;;5075382;28;20017;-84
2022/10/17 09:30:06;;;;;;;18.63;11.32;;;;;;;;;;5054947;28;20025;-84
2022/10/17 09:32:32;;;;;;;19.58;12.98;;;;;;;;;;5051211;28;20021;-85
2022/10/17 09:34:59;;;;;;;17.73;11.82;;;;;;;;;;5063461;28;20091;-85
2022/10/17 09:37:28;;;;;;;16.60;11.15;;;;;;;;;;5076964;28;20482;-83
2022/10/17 09:39:55;;;;;;;16.63;10.52;;;;;;;;;;5075650;28;20493;-87
2022/10/17 09:42:26;;;;;;;19.65;12.02;;;;;;;;;;5074775;28;20032;-83
2022/10/17 09:44:56;;;;;;;18.77;12.02;;;;;;;;;;5073452;28;20117;-83
2022/10/17 09:47:25;;;;;;;16.33;11.65;;;;;;;;;;5066180;28;20035;-85
2022/10/17 09:49:51;;;;;;;19.67;13.07;;;;;;;;;;5077294;28;20090;-83
2022/10/17 09:52:19;;;;;;;18.85;11.27;;;;;;;;;;5052648;28;20051;-82
2022/10/17 09:54:47;;;;;;;20.30;13.60;;;;;;;;;;5051717;28;20021;-84
2022/10/17 09:57:14;;;;;;;18.63;11.90;;;;;;;;;;5065333;28;20036;-82
2022/10/17 09:59:44;;;;;;;14.30;11.30;;;;;;;;;;5077209;28;20078;-83
2022/10/17 10:02:13;;;;;;;17.17;12.02;;;;;;;;;;5076817;28;20024;-83
2022/10/17 10:04:58;;;;;;;15.38;11.73;;;;;;;;;;5077959;28;20111;-82
2022/10/17 10:07:32;;;;;;;16.40;10.88;;;;;;;;;;5061659;28;20367;-87
2022/10/17 10:09:59;;;;;;;18.00;12.48;;;;;;;;;;5075428;28;20031;-84
2022/10/17 10:12:26;;;;;;;19.55;10.77;;;;;;;;;;5077984;28;20027;-84
2022/10/17 10:14:53;;;;;;;17.13;11.25;;;;;;;;;;5076519;28;20025;-85
2022/10/17 10:17:33;;;;;;;15.63;11.07;;;;;;;;;;5052968;28;20521;-86
2022/10/17 10:20:00;;;;;;;18.98;11.57;;;;;;;;;;5053514;28;20104;-83
2022/10/17 10:22:26;;;;;;;16.05;10.80;;;;;;;;;;5073625;28;20024;-84
2022/10/17 10:25:13;;;;;;;16.67;11.68;;;;;;;;;;5077747;28;20040;-87
2022/10/17 10:27:40;;;;;;;16.93;11.90;;;;;;;;;;5084654;28;20098;-84
2022/10/17 10:30:06;;;;;;;14.80;11.35;;;;;;;;;;5079390;28;20288;-85
2022/10/17 10:32:36;;;;;;;17.40;9.27;;;;;;;;;;5074930;28;20017;-83
2022/10/17 10:35:20;;;;;;;14.02;10.18;;;;;;;;;;5073875;28;20055;-84
2022/10/17 10:37:54;;;;;;;18.50;10.52;;;;;;;;;;5052750;28;20021;-83
2022/10/17 10:40:36;;;;;;;13.50;10.35;;;;;;;;;;5055438;28;20067;-82
2022/10/17 10:43:07;;;;;;;21.60;9.32;;;;;;;;;;5054069;28;20136;-84
2022/10/17 10:45:36;;;;;;;12.60;9.15;;;;;;;;;;5045388;28;20029;-85
2022/10/17 10:48:05;;;;;;;18.70;9.82;;;;;;;;;;5073928;28;20020;-84
2022/10/17 10:50:40;;;;;;;17.35;11.00;;;;;;;;;;5084277;28;20042;-84
2022/10/17 10:53:29;;;;;;;14.48;10.32;;;;;;;;;;5080022;28;20036;-84
2022/10/17 10:55:58;;;;;;;14.77;11.15;;;;;;;;;;5078805;28;20040;-86
2022/10/17 10:58:39;;;;;;;13.27;9.85;;;;;;;;;;5053584;28;20041;-83
2022/10/17 11:01:09;;;;;;;14.73;11.35;;;;;;;;;;5049253;28;20031;-84
2022/10/17 11:03:39;;;;;;;22.45;10.50;;;;;;;;;;5073931;28;20074;-85
2022/10/17 11:06:10;;;;;;;20.20;10.02;;;;;;;;;;5064393;28;20386;-85
2022/10/17 11:08:44;;;;;;;14.32;9.77;;;;;;;;;;5052011;28;20063;-86
2022/10/17 11:11:18;;;;;;;19.13;11.73;;;;;;;;;;5057397;28;20041;-85
2022/10/17 11:14:09;;;;;;;13.85;10.02;;;;;;;;;;5058106;28;20116;-86
2022/10/17 11:17:02;;;;;;;12.68;9.43;;;;;;;;;;5023353;28;20021;-85
2022/10/17 11:19:34;;;;;;;17.02;9.02;;;;;;;;;;5037049;28;20056;-83
2022/10/17 11:22:19;;;;;;;18.73;11.45;;;;;;;;;;5072989;28;20047;-86
2022/10/17 11:25:00;;;;;;;13.82;9.98;;;;;;;;;;5062370;28;20027;-86
2022/10/17 11:27:28;;;;;;;16.70;11.00;;;;;;;;;;5059240;28;20023;-87
2022/10/17 11:29:55;;;;;;;13.75;8.65;;;;;;;;;;5073720;28;20042;-85
2022/10/17 11:32:25;;;;;;;14.80;11.57;;;;;;;;;;5073956;28;20048;-86
2022/10/17 11:34:56;;;;;;;22.63;11.15;;;;;;;;;;5066165;28;20040;-85
2022/10/17 11:37:24;;;;;;;15.35;11.02;;;;;;;;;;5068096;28;20056;-84
2022/10/17 11:40:14;;;;;;;18.55;12.00;;;;;;;;;;5075858;28;20100;-87
2022/10/17 11:42:44;;;;;;;13.38;10.00;;;;;;;;;;5061407;28;20037;-86
2022/10/17 11:45:13;;;;;;;18.10;10.05;;;;;;;;;;5069370;28;20013;-86
2022/10/17 11:47:47;;;;;;;18.13;11.38;;;;;;;;;;5055255;28;20556;-86
2022/10/17 11:50:20;;;;;;;20.88;13.07;;;;;;;;;;5069014;28;20491;-87
2022/10/17 11:52:49;;;;;;;18.17;12.32;;;;;;;;;;5075163;28;20028;-88
2022/10/17 11:55:25;;;;;;;16.08;11.43;;;;;;;;;;5064121;28;20025;-84
2022/10/17 11:57:59;;;;;;;17.73;11.15;;;;;;;;;;5083244;28;20017;-83
2022/10/17 12:00:30;;;;;;;18.02;11.43;;;;;;;;;;5087027;28;20031;-83
2022/10/17 12:02:59;;;;;;;15.82;12.07;;;;;;;;;;5074279;28;20387;-84
2022/10/17 12:05:49;;;;;;;19.05;12.50;;;;;;;;;;5069866;28;20391;-84
2022/10/17 12:08:24;;;;;;;17.63;12.13;;;;;;;;;;5068552;28;20389;-82
2022/10/17 12:10:53;;;;;;;17.50;12.27;;;;;;;;;;5073218;28;20497;-84
2022/10/17 12:13:29;;;;;;;19.90;11.68;;;;;;;;;;5072511;28;20685;-84
2022/10/17 12:15:55;;;;;;;18.65;11.55;;;;;;;;;;5049642;28;20035;-84
2022/10/17 12:18:24;;;;;;;18.17;12.35;;;;;;;;;;5065557;28;20024;-84
2022/10/17 12:21:00;;;;;;;20.90;13.27;;;;;;;;;;5058435;28;20039;-84
2022/10/17 12:23:30;;;;;;;16.80;11.57;;;;;;;;;;5072843;28;20021;-84
2022/10/17 12:26:00;;;;;;;15.60;11.82;;;;;;;;;;5073194;28;20024;-86
2022/10/17 12:28:33;;;;;;;15.85;11.13;;;;;;;;;;5074704;28;20119;-84
2022/10/17 12:31:01;;;;;;;18.23;12.77;;;;;;;;;;5053503;28;20560;-84
2022/10/17 12:33:27;;;;;;;20.58;13.27;;;;;;;;;;5064849;28;20036;-85
2022/10/17 12:36:12;;;;;;;18.77;14.13;;;;;;;;;;5053465;28;20033;-85
2022/10/17 12:38:38;;;;;;;18.60;11.30;;;;;;;;;;5076152;28;20032;-85
2022/10/17 12:41:05;;;;;;;22.08;14.13;;;;;;;;;;5074894;28;20058;-85
2022/10/17 12:43:31;;;;;;;22.77;12.05;;;;;;;;;;5070721;28;20021;-84
2022/10/17 12:45:58;;;;;;;24.30;13.10;;;;;;;;;;5055389;28;20413;-84
2022/10/17 12:48:36;;;;;;;17.90;12.38;;;;;;;;;;5076823;28;20036;-85
2022/10/17 12:51:10;;;;;;;18.88;13.32;;;;;;;;;;5069907;28;20044;-86
2022/10/17 12:53:55;;;;;;;17.45;13.20;;;;;;;;;;5055592;28;20024;-85
2022/10/17 12:56:29;;;;;;;20.90;12.75;;;;;;;;;;5055727;28;20039;-85
2022/10/17 12:58:57;;;;;;;20.75;13.77;;;;;;;;;;5080846;28;20029;-85
2022/10/17 13:01:33;;;;;;;19.70;12.25;;;;;;;;;;5065457;28;20036;-84
2022/10/17 13:04:04;;;;;;;19.17;13.65;;;;;;;;;;5077316;28;20032;-84
2022/10/17 13:06:36;;;;;;;23.75;14.35;;;;;;;;;;5042540;28;20028;-86
2022/10/17 13:09:05;;;;;;;19.38;12.50;;;;;;;;;;5069806;28;20038;-85
2022/10/17 13:11:33;;;;;;;19.38;14.35;;;;;;;;;;5076978;28;20047;-84
2022/10/17 13:14:01;;;;;;;18.27;14.43;;;;;;;;;;5061875;28;20082;-85
2022/10/17 13:16:31;;;;;;;24.65;14.95;;;;;;;;;;5054946;28;20113;-86
2022/10/17 13:18:57;;;;;;;20.52;13.77;;;;;;;;;;5055307;28;20048;-84
2022/10/17 13:21:23;;;;;;;20.65;13.25;;;;;;;;;;5075674;28;20067;-84
2022/10/17 13:23:51;;;;;;;17.77;12.95;;;;;;;;;;5054327;28;20025;-85
2022/10/17 13:26:25;;;;;;;20.38;13.25;;;;;;;;;;5066629;28;20104;-83
2022/10/17 13:29:11;;;;;;;19.35;11.32;;;;;;;;;;5080443;28;20050;-85
2022/10/17 13:31:39;;;;;;;19.98;13.20;;;;;;;;;;5089741;28;20029;-85
2022/10/17 13:34:13;;;;;;;21.35;11.98;;;;;;;;;;5076803;28;20420;-84
2022/10/17 13:36:42;;;;;;;19.75;13.30;;;;;;;;;;5057744;28;20033;-85
2022/10/17 13:39:10;;;;;;;19.10;14.05;;;;;;;;;;5055800;28;20017;-85
2022/10/17 13:41:39;;;;;;;25.60;14.63;;;;;;;;;;5052933;28;20052;-86
2022/10/17 13:44:17;;;;;;;21.67;14.93;;;;;;;;;;5051683;28;20027;-84
2022/10/17 13:46:44;;;;;;;18.10;13.95;;;;;;;;;;5067557;28;20565;-84
2022/10/17 13:49:12;;;;;;;23.17;14.10;;;;;;;;;;5069197;28;20029;-85
2022/10/17 13:51:41;;;;;;;24.42;14.07;;;;;;;;;;5075539;28;20044;-85
2022/10/17 13:54:26;;;;;;;21.75;13.85;;;;;;;;;;5079697;28;20029;-84
2022/10/17 13:56:56;;;;;;;22.45;15.43;;;;;;;;;;5060652;28;20565;-83
2022/10/17 13:59:23;;;;;;;20.13;14.95;;;;;;;;;;5041749;28;20064;-82
2022/10/17 14:01:51;;;;;;;20.95;13.40;;;;;;;;;;5069574;28;20032;-83
2022/10/17 14:04:17;;;;;;;21.92;14.02;;;;;;;;;;5067552;28;20037;-85
2022/10/17 14:06:44;;;;;;;26.60;14.52;;;;;;;;;;5060586;28;20028;-86
2022/10/17 14:09:28;;;;;;;22.60;14.82;;;;;;;;;;5063031;28;20048;-85
2022/10/17 14:11:59;;;;;;;18.77;12.23;;;;;;;;;;5061955;28;20041;-83
2022/10/17 14:14:26;;;;;;;20.48;15.07;;;;;;;;;;5077409;28;20405;-85
2022/10/17 14:16:52;;;;;;;21.73;16.00;;;;;;;;;;5074759;28;20039;-83
2022/10/17 14:19:27;;;;;;;22.00;13.60;;;;;;;;;;5067934;28;20025;-84
2022/10/17 14:22:13;;;;;;;22.73;13.23;;;;;;;;;;5060079;28;20087;-83
2022/10/17 14:24:41;;;;;;;18.33;14.30;;;;;;;;;;5065477;28;20059;-87
2022/10/17 14:27:25;;;;;;;22.17;13.93;;;;;;;;;;5076712;28;20025;-84
2022/10/17 14:29:53;;;;;;;21.70;15.43;;;;;;;;;;5070312;28;20381;-84
2022/10/17 14:32:20;;;;;;;20.90;14.50;;;;;;;;;;5076488;28;20448;-86
2022/10/17 14:34:51;;;;;;;27.42;13.45;;;;;;;;;;5066704;28;20115;-84
2022/10/17 14:37:39;;;;;;;25.45;17.00;;;;;;;;;;5076859;28;20028;-83
2022/10/17 14:40:06;;;;;;;20.00;15.20;;;;;;;;;;5076436;28;20084;-82
2022/10/17 14:42:32;;;;;;;25.50;16.07;;;;;;;;;;5071713;28;20136;-83
2022/10/17 14:45:03;;;;;;;19.52;14.20;;;;;;;;;;5075184;28;20024;-83
2022/10/17 14:47:30;;;;;;;20.77;12.98;;;;;;;;;;5066090;28;20021;-84
2022/10/17 14:50:07;;;;;;;22.02;14.23;;;;;;;;;;5054431;28;20554;-83